createdAt,value
2022-09-18T09:39:46.884Z,88680.47
2022-09-18T09:42:31.601Z,88680.41
2022-09-18T12:56:31.148Z,88549.19
2022-09-18T12:59:15.948Z,88554.34
2022-09-18T13:02:00.659Z,88548.56
2022-09-18T13:04:45.275Z,88553.53
2022-09-18T13:07:30.261Z,88547.72
2022-09-18T13:10:15.242Z,88542.16
2022-09-18T13:13:00.187Z,88540.56
2022-09-18T13:15:45.056Z,88541.16
2022-09-18T13:18:30.649Z,88544.34
2022-09-18T13:21:15.450Z,88538.59
2022-09-18T13:24:00.071Z,88535.72
2022-09-18T13:26:44.798Z,88531.94
2022-09-18T13:29:29.495Z,88529.09
2022-09-18T13:32:14.258Z,88527.97
2022-09-18T13:34:58.885Z,88510.69
2022-09-18T13:37:44.036Z,88512.81
2022-09-18T13:40:28.820Z,88505.00
2022-09-18T13:43:13.594Z,88502.78
2022-09-18T13:45:58.341Z,88508.06
2022-09-18T13:48:43.005Z,88506.75
2022-09-18T13:51:31.315Z,88504.22
2022-09-18T13:54:16.388Z,88497.94
2022-09-18T13:57:01.199Z,88494.53
2022-09-18T13:59:45.924Z,88494.94
2022-09-18T14:02:30.700Z,88497.97
2022-09-18T14:05:15.372Z,88497.13
2022-09-18T14:08:00.227Z,88492.56
2022-09-18T14:10:54.932Z,88495.91
2022-09-18T14:13:49.955Z,88490.44
2022-09-18T14:16:34.756Z,88487.84
2022-09-18T14:19:20.041Z,88490.69
2022-09-18T14:22:04.778Z,88491.09
2022-09-18T14:24:49.704Z,88493.75
2022-09-18T14:27:34.357Z,88482.28
2022-09-18T14:30:19.170Z,88496.34
2022-09-18T14:33:03.832Z,88493.84
2022-09-18T14:35:48.659Z,88493.84
2022-09-18T14:38:33.337Z,88493.84
2022-09-18T14:41:18.064Z,88502.47
2022-09-18T14:44:03.035Z,88494.84
2022-09-18T14:46:48.115Z,88498.94
2022-09-18T14:49:32.920Z,88492.94
2022-09-18T14:52:17.635Z,88493.81
2022-09-18T14:55:02.314Z,88482.69
2022-09-18T14:57:47.128Z,88488.38
2022-09-18T15:00:31.744Z,88486.16
2022-09-18T15:03:16.405Z,88485.91
2022-09-18T15:06:01.216Z,88485.06
2022-09-18T15:08:45.948Z,88486.44
2022-09-18T15:11:46.694Z,88488.94
2022-09-18T15:14:41.518Z,88486.44
2022-09-18T15:17:29.131Z,88489.38
2022-09-18T15:20:13.859Z,88490.31
2022-09-18T15:22:58.681Z,88482.28
2022-09-18T15:25:43.569Z,88482.72
2022-09-18T15:28:28.500Z,88487.25
2022-09-18T15:31:13.230Z,88487.53
2022-09-18T15:33:57.985Z,88483.91
2022-09-18T15:36:42.703Z,88488.75
2022-09-18T15:39:27.511Z,88483.31
2022-09-18T15:42:12.420Z,88487.63
2022-09-18T15:44:57.088Z,88479.13
2022-09-18T15:47:42.078Z,88477.72
2022-09-18T15:50:26.732Z,88478.97
2022-09-18T15:53:11.702Z,88476.34
2022-09-18T15:55:56.449Z,88480.19
2022-09-18T15:58:41.305Z,88473.25
2022-09-18T16:01:26.356Z,88482.69
2022-09-18T16:04:10.920Z,88484.25
2022-09-18T16:06:55.730Z,88480.38
2022-09-18T16:09:40.519Z,88480.63
2022-09-18T16:12:25.328Z,88477.19
2022-09-18T16:15:09.948Z,88471.34
2022-09-18T16:17:54.560Z,88475.34
2022-09-18T16:20:39.221Z,88481.00
2022-09-18T16:23:24.041Z,88473.22
2022-09-18T16:26:08.811Z,88476.81
2022-09-18T16:28:53.383Z,88477.78
2022-09-18T16:31:38.210Z,88476.94
2022-09-18T16:34:22.897Z,88475.72
2022-09-18T16:37:07.680Z,88474.75
2022-09-18T16:39:52.545Z,88481.00
2022-09-18T16:42:37.150Z,88478.81
2022-09-18T16:45:21.925Z,88481.75
2022-09-18T16:48:06.821Z,88490.69
2022-09-18T16:50:51.634Z,88481.41
2022-09-18T16:53:36.455Z,88484.59
2022-09-18T16:56:21.272Z,88490.91
2022-09-18T16:59:06.075Z,88500.16
2022-09-18T17:02:03.441Z,88497.22
2022-09-18T17:04:48.853Z,88505.59
2022-09-18T17:07:33.678Z,88514.75
2022-09-18T17:10:18.303Z,88503.22
2022-09-18T17:13:03.194Z,88504.91
2022-09-18T17:15:47.832Z,88508.97
2022-09-18T17:18:32.597Z,88511.81
2022-09-18T17:21:17.306Z,88502.63
2022-09-18T17:24:02.199Z,88508.44
2022-09-18T17:26:46.943Z,88515.09
2022-09-18T17:29:31.677Z,88506.63
2022-09-18T17:32:16.392Z,88508.00
2022-09-18T17:35:01.184Z,88513.38
2022-09-18T17:37:46.037Z,88508.41
2022-09-18T17:40:30.834Z,88512.13
2022-09-18T17:43:16.075Z,88507.00
2022-09-18T17:46:00.770Z,88504.72
2022-09-18T17:48:45.664Z,88505.75
2022-09-18T17:51:30.343Z,88504.91
2022-09-18T17:54:15.199Z,88508.06
2022-09-18T17:56:59.909Z,88503.81
2022-09-18T17:59:44.883Z,88517.06
2022-09-18T18:02:30.172Z,88520.91
2022-09-18T18:05:14.713Z,88525.06
2022-09-18T18:07:59.621Z,88535.75
2022-09-18T18:10:44.397Z,88536.97
2022-09-18T18:13:29.279Z,88527.25
2022-09-18T18:16:14.047Z,88536.47
2022-09-18T18:18:58.628Z,88531.66
2022-09-18T18:21:43.268Z,88532.28
2022-09-18T18:24:28.085Z,88533.59
2022-09-18T18:27:12.844Z,88535.78
2022-09-18T18:29:57.633Z,88530.69
2022-09-18T18:32:42.374Z,88531.28
2022-09-18T18:35:27.016Z,88537.38
2022-09-18T18:38:11.794Z,88550.00
2022-09-18T18:40:56.444Z,88537.28
2022-09-18T18:43:41.384Z,88544.53
2022-09-18T18:46:26.246Z,88552.81
2022-09-18T18:49:11.008Z,88548.50
2022-09-18T18:51:55.686Z,88552.31
2022-09-18T18:54:40.707Z,88555.06
2022-09-18T18:57:25.417Z,88550.59
2022-09-18T19:00:10.178Z,88549.03
2022-09-18T19:02:54.819Z,88549.44
2022-09-18T19:05:39.617Z,88554.50
2022-09-18T19:08:24.452Z,88552.97
2022-09-18T19:11:10.322Z,88559.16
2022-09-18T19:13:55.157Z,88566.34
2022-09-18T19:16:39.894Z,88570.34
2022-09-18T19:19:24.819Z,88575.81
2022-09-18T19:22:09.506Z,88573.13
2022-09-18T19:24:54.358Z,88592.38
2022-09-18T19:27:39.102Z,88591.91
2022-09-18T19:30:23.864Z,88590.19
2022-09-18T19:33:08.822Z,88595.63
2022-09-18T19:35:53.710Z,88601.44
2022-09-18T19:38:38.444Z,88594.25
2022-09-18T19:41:23.031Z,88594.44
2022-09-18T19:44:07.740Z,88589.53
2022-09-18T19:46:52.582Z,88584.28
2022-09-18T19:49:37.431Z,88586.53
2022-09-18T19:52:22.082Z,88582.34
2022-09-18T19:55:06.872Z,88581.13
2022-09-18T19:57:51.809Z,88575.88
2022-09-18T20:00:36.554Z,88578.34
2022-09-18T20:03:21.307Z,88578.66
2022-09-18T20:06:06.056Z,88574.44
2022-09-18T20:08:50.954Z,88577.56
2022-09-18T20:11:35.768Z,88570.91
2022-09-18T20:14:20.589Z,88573.38
2022-09-18T20:17:05.320Z,88569.50
2022-09-18T20:19:50.127Z,88565.13
2022-09-18T20:22:34.831Z,88566.69
2022-09-18T20:25:19.592Z,88569.16
2022-09-18T20:28:04.384Z,88567.56
2022-09-18T20:30:49.176Z,88564.94
2022-09-18T20:33:33.989Z,88570.41
2022-09-18T20:36:18.936Z,88570.63
2022-09-18T20:39:03.669Z,88557.50
2022-09-18T20:41:48.252Z,88562.44
2022-09-18T20:44:32.887Z,88557.03
2022-09-18T20:47:17.634Z,88562.84
2022-09-18T20:50:02.318Z,88553.28
2022-09-18T20:52:47.131Z,88563.50
2022-09-18T20:55:31.960Z,88565.47
2022-09-18T20:58:16.951Z,88567.22
2022-09-18T21:01:01.839Z,88568.16
2022-09-18T21:03:46.606Z,88575.88
2022-09-18T21:06:31.324Z,88572.19
2022-09-18T21:09:16.082Z,88579.47
2022-09-18T21:12:00.914Z,88575.66
2022-09-18T21:14:45.637Z,88570.78
2022-09-18T21:17:30.326Z,88568.16
2022-09-18T21:20:15.063Z,88556.56
2022-09-18T21:22:59.788Z,88567.41
2022-09-18T21:25:44.664Z,88570.34
2022-09-18T21:28:29.485Z,88560.34
2022-09-18T21:31:14.242Z,88563.13
2022-09-18T21:33:59.667Z,88557.94
2022-09-18T21:36:44.343Z,88558.09
2022-09-18T21:39:29.205Z,88558.78
2022-09-18T21:42:13.954Z,88551.78
2022-09-18T21:44:58.799Z,88550.00
2022-09-18T21:47:43.369Z,88552.09
2022-09-18T21:50:28.214Z,88545.28
2022-09-18T21:53:12.904Z,88550.53
2022-09-18T21:55:57.792Z,88547.69
2022-09-18T21:58:42.543Z,88544.91
2022-09-18T22:01:27.317Z,88545.81
2022-09-18T22:04:12.224Z,88543.91
2022-09-18T22:06:56.842Z,88546.31
2022-09-18T22:09:41.578Z,88549.63
2022-09-18T22:12:26.310Z,88553.22
2022-09-18T22:15:11.041Z,88542.00
2022-09-18T22:17:55.714Z,88543.63
2022-09-18T22:20:40.599Z,88539.81
2022-09-18T22:23:25.236Z,88540.19
2022-09-18T22:26:09.976Z,88543.88
2022-09-18T22:28:54.895Z,88545.16
2022-09-18T22:31:39.816Z,88543.97
2022-09-18T22:34:25.060Z,88549.03
2022-09-18T22:37:09.788Z,88546.41
2022-09-18T22:39:54.819Z,88543.47
2022-09-18T22:42:39.390Z,88541.91
2022-09-18T22:45:24.243Z,88541.38
2022-09-18T22:48:08.933Z,88535.81
2022-09-18T22:50:53.672Z,88535.28
2022-09-18T22:53:38.421Z,88529.13
2022-09-18T22:56:23.323Z,88526.88
2022-09-18T22:59:08.294Z,88528.84
2022-09-18T23:01:52.988Z,88533.91
2022-09-18T23:04:37.821Z,88524.66
2022-09-18T23:07:22.399Z,88524.31
2022-09-18T23:10:07.104Z,88520.81
2022-09-18T23:12:51.865Z,88520.50
2022-09-18T23:15:36.879Z,88522.78
2022-09-18T23:18:21.464Z,88522.25
2022-09-18T23:21:06.180Z,88516.13
2022-09-18T23:23:51.106Z,88513.00
2022-09-18T23:26:35.786Z,88515.44
2022-09-18T23:29:20.623Z,88505.88
2022-09-18T23:32:05.287Z,88505.88
2022-09-18T23:34:50.103Z,88510.59
2022-09-18T23:37:34.987Z,88508.84
2022-09-18T23:40:19.739Z,88501.31
2022-09-18T23:43:04.495Z,88502.16
2022-09-18T23:45:49.202Z,88507.09
2022-09-18T23:48:33.992Z,88503.06
2022-09-18T23:51:18.686Z,88499.59
2022-09-18T23:54:03.501Z,88501.19
2022-09-18T23:56:48.172Z,88503.28
2022-09-18T23:59:33.000Z,88508.84
